< < Back
Terminal Aerodrome Forecast


Current Version              Previous Versions:   1  2  3  4  5  6  7  8  9  

Terminal Aerodrome Forecast

052
FTUS42 KILM 201700
TAFILM
TAF
KILM 201725Z 2018/2118 04007KT 6SM -RA SCT008 OVC050
     FM202100 03006KT 4SM BR BKN008 OVC030
      TEMPO 2021/2101 3SM -RA BR SCT008 OVC030
     FM211000 01006KT 4SM BR SCT006 SCT020 BKN050
     FM211500 04009KT P6SM SCT040 BKN060=



Latest METAR

315
SAUS70 KWBC 202100
MTRILM
METAR KILM 202053Z 05009KT 7SM -RA SCT008 BKN029 OVC060 07/05 A3022 RMK
AO2 RAB03E21B44 SLP233 P0000 60003 T00670050 55000


USA.gov is the U.S. government's official web portal to all federal, state and local government web resources and services.